This is the latest recevied weather packets stored in our database for station/object S53BL-10. If no packets are shown the sender has not sent any weather packets the latest 10 day(s).
| Time | Temp. | Humidity | Pressure | Rain* | Wind** | Luminosity | Snow |
|---|---|---|---|---|---|---|---|
| 1777571526 | 12.22° C | 29% | 1022.1 hPa | - | - | - | - |
| 1777570625 | 12.78° C | 29% | 1022 hPa | - | - | - | - |
| 1777569724 | 13.33° C | 27% | 1022 hPa | - | - | - | - |
| 1777568822 | 14.44° C | 27% | 1021.8 hPa | - | - | - | - |
| 1777567921 | 15° C | 25% | 1021.8 hPa | - | - | - | - |
| 1777567020 | 15° C | 25% | 1021.7 hPa | - | - | - | - |
| 1777566119 | 15.56° C | 25% | 1021.5 hPa | - | - | - | - |
| 1777565219 | 17.22° C | 22% | 1021.6 hPa | - | - | - | - |
| 1777564318 | 17.78° C | 21% | 1021.7 hPa | - | - | - | - |
| 1777563416 | 18.33° C | 20% | 1021.6 hPa | - | - | - | - |
| 1777562515 | 18.33° C | 22% | 1021.7 hPa | - | - | - | - |
| 1777561614 | 18.89° C | 21% | 1021.7 hPa | - | - | - | - |
| 1777560714 | 18.33° C | 22% | 1021.7 hPa | - | - | - | - |
| 1777559813 | 18.33° C | 21% | 1021.7 hPa | - | - | - | - |
| 1777558912 | 17.78° C | 21% | 1021.8 hPa | - | - | - | - |
| 1777558011 | 18.33° C | 21% | 1021.9 hPa | - | - | - | - |
| 1777557111 | 18.33° C | 21% | 1021.9 hPa | - | - | - | - |
| 1777556210 | 19.44° C | 21% | 1022 hPa | - | - | - | - |
| 1777555309 | 19.44° C | 21% | 1022.1 hPa | - | - | - | - |
| 1777554408 | 18.33° C | 21% | 1022.3 hPa | - | - | - | - |
| 1777553507 | 19.44° C | 20% | 1022.4 hPa | - | - | - | - |
| 1777552607 | 18.89° C | 22% | 1022.6 hPa | - | - | - | - |
| 1777551706 | 19.44° C | 22% | 1022.8 hPa | - | - | - | - |
| 1777550805 | 18.33° C | 25% | 1022.8 hPa | - | - | - | - |
| 1777549904 | 18.33° C | 23% | 1023.1 hPa | - | - | - | - |
* Rain since midnight (hover to see other rain measurements)
** Current wind speed in m/s (hover to see current wind gust speed)